Time;durP1;ratioP1;P1;durP2;ratioP2;P2;SDS_P1;SDS_P2;PMS_P1;PMS_P2;Temp;Humidity;BMP_temperature;BMP_pressure;BME280_temperature;BME280_humidity;BME280_pressure;Samples;Min_cycle;Max_cycle;Signal;HPM_P1;HPM_P2
2021/12/14 00:00:48;;;;;;;151.00;145.70;;;8.10;99.90;;;;;;5138566;28;20944;-82
2021/12/14 00:03:19;;;;;;;175.20;169.37;;;8.10;99.90;;;;;;5138834;28;20452;-83
2021/12/14 00:05:48;;;;;;;176.33;170.17;;;8.10;99.90;;;;;;5138547;28;20448;-82
2021/12/14 00:08:16;;;;;;;179.60;173.63;;;8.10;99.90;;;;;;5139489;28;20460;-82
2021/12/14 00:10:58;;;;;;;198.30;191.77;;;8.10;99.90;;;;;;5138810;27;20939;-82
2021/12/14 00:13:31;;;;;;;210.87;203.80;;;8.00;99.90;;;;;;5138405;28;20453;-82
2021/12/14 00:15:58;;;;;;;220.60;212.93;;;8.10;99.90;;;;;;5138486;27;20452;-81
2021/12/14 00:18:26;;;;;;;225.63;218.23;;;8.00;99.90;;;;;;5138160;27;21014;-82
2021/12/14 00:21:00;;;;;;;244.77;236.73;;;8.00;99.90;;;;;;5137805;27;20448;-82
2021/12/14 00:26:16;;;;;;;249.77;241.43;;;7.90;99.90;;;;;;5138235;28;20435;-82
2021/12/14 00:28:43;;;;;;;237.07;228.93;;;7.90;99.90;;;;;;5138667;27;20460;-81
2021/12/14 00:31:14;;;;;;;237.77;230.00;;;8.00;99.90;;;;;;5137814;28;20448;-82
2021/12/14 00:33:43;;;;;;;254.87;246.13;;;8.00;99.90;;;;;;5138479;27;20455;-82
2021/12/14 00:36:13;;;;;;;254.47;245.93;;;8.00;99.90;;;;;;5138067;27;20454;-82
2021/12/14 00:38:41;;;;;;;256.23;247.13;;;8.00;99.90;;;;;;5138437;27;20525;-82
2021/12/14 00:41:11;;;;;;;244.10;235.90;;;8.00;99.90;;;;;;5139678;27;20448;-81
2021/12/14 00:43:39;;;;;;;238.13;229.73;;;8.00;99.90;;;;;;5143131;27;20829;-81
2021/12/14 00:46:06;;;;;;;259.13;250.33;;;8.00;99.90;;;;;;5141254;27;20934;-82
2021/12/14 00:48:33;;;;;;;264.40;255.27;;;8.00;99.90;;;;;;5142266;27;20975;-81
2021/12/14 00:51:03;;;;;;;266.57;257.27;;;8.00;99.90;;;;;;5142339;27;20458;-82
2021/12/14 00:53:31;;;;;;;240.20;232.00;;;7.90;99.90;;;;;;5141584;27;20449;-82
2021/12/14 00:56:02;;;;;;;227.70;220.20;;;7.90;99.90;;;;;;5141288;27;20448;-82
2021/12/14 00:58:29;;;;;;;233.80;225.83;;;7.90;99.90;;;;;;5141388;27;20475;-82
2021/12/14 01:00:58;;;;;;;225.63;218.03;;;8.00;99.90;;;;;;5141742;27;20516;-82
2021/12/14 01:03:30;;;;;;;223.23;215.83;;;8.00;99.90;;;;;;5141972;27;20847;-82
2021/12/14 01:05:58;;;;;;;227.70;220.17;;;8.00;99.90;;;;;;5141952;27;20460;-82
2021/12/14 01:08:28;;;;;;;224.30;217.00;;;7.90;99.90;;;;;;5142139;27;20467;-82
2021/12/14 01:11:03;;;;;;;218.67;211.57;;;8.00;99.90;;;;;;5142259;27;20448;-82
2021/12/14 01:13:32;;;;;;;223.03;215.53;;;8.00;99.90;;;;;;5142258;27;20499;-82
2021/12/14 01:16:15;;;;;;;235.40;227.33;;;7.90;99.90;;;;;;5141772;27;20448;-81
2021/12/14 01:18:49;;;;;;;222.63;215.13;;;7.90;99.90;;;;;;5141864;27;20500;-82
2021/12/14 01:21:26;;;;;;;216.27;208.97;;;8.00;99.90;;;;;;5141810;27;20450;-82
2021/12/14 01:24:05;;;;;;;205.83;198.87;;;8.00;99.90;;;;;;5141000;27;20932;-82
2021/12/14 01:26:35;;;;;;;218.33;210.67;;;7.90;99.90;;;;;;5141156;27;20460;-82
2021/12/14 01:29:04;;;;;;;190.13;183.50;;;7.90;99.90;;;;;;5142009;27;20864;-82
2021/12/14 01:31:36;;;;;;;201.27;194.43;;;7.90;99.90;;;;;;5141434;27;20478;-82
2021/12/14 01:34:06;;;;;;;215.30;208.03;;;8.00;99.90;;;;;;5141384;27;20456;-82
2021/12/14 01:36:41;;;;;;;230.00;222.30;;;8.00;99.90;;;;;;5141425;27;20455;-82
2021/12/14 01:39:33;;;;;;;243.37;234.77;;;7.90;99.90;;;;;;5141705;27;20484;-82
2021/12/14 01:42:08;;;;;;;256.17;247.57;;;7.90;99.90;;;;;;5141177;27;20834;-83
2021/12/14 01:44:37;;;;;;;256.93;248.13;;;8.00;99.90;;;;;;5141597;27;20446;-82
2021/12/14 01:47:10;;;;;;;254.07;245.33;;;8.00;99.90;;;;;;5141692;27;20470;-81
2021/12/14 01:49:36;;;;;;;260.27;251.23;;;8.00;99.90;;;;;;5141990;27;20490;-82
2021/12/14 01:52:08;;;;;;;273.17;263.47;;;7.90;99.90;;;;;;5141334;27;20455;-82
2021/12/14 01:54:38;;;;;;;273.93;264.37;;;8.00;99.90;;;;;;5141101;27;20458;-83
2021/12/14 01:57:09;;;;;;;283.87;273.93;;;8.00;99.90;;;;;;5139928;27;20455;-82
2021/12/14 01:59:39;;;;;;;279.20;269.20;;;7.90;99.90;;;;;;5140457;27;20994;-82
2021/12/14 02:02:20;;;;;;;284.77;274.77;;;7.90;99.90;;;;;;5141135;27;20447;-83
2021/12/14 02:04:50;;;;;;;287.23;277.13;;;7.90;99.90;;;;;;5141409;27;20500;-82
2021/12/14 02:07:19;;;;;;;288.37;278.13;;;8.00;99.90;;;;;;5139973;27;20501;-82
2021/12/14 02:09:49;;;;;;;280.80;270.80;;;8.00;99.90;;;;;;5140086;27;20444;-82
2021/12/14 02:12:20;;;;;;;283.20;273.03;;;8.00;99.90;;;;;;5140552;27;20447;-82
2021/12/14 02:14:48;;;;;;;278.63;268.70;;;8.00;99.90;;;;;;5140219;27;20833;-82
2021/12/14 02:17:18;;;;;;;285.30;274.60;;;8.00;99.90;;;;;;5139772;27;20452;-81
2021/12/14 02:19:46;;;;;;;272.87;263.20;;;8.00;99.90;;;;;;5139719;27;20475;-82
2021/12/14 02:22:15;;;;;;;275.63;265.53;;;8.00;99.90;;;;;;5139700;27;20452;-81
2021/12/14 02:24:45;;;;;;;286.77;276.57;;;8.10;99.90;;;;;;5139911;27;20440;-82
2021/12/14 02:27:12;;;;;;;307.30;295.60;;;8.00;99.90;;;;;;5139240;27;20455;-81
2021/12/14 02:29:41;;;;;;;309.77;298.17;;;8.00;99.90;;;;;;5139686;27;20472;-82
2021/12/14 02:32:11;;;;;;;306.17;294.97;;;8.00;99.90;;;;;;5139669;27;20440;-82
2021/12/14 02:34:41;;;;;;;303.60;292.37;;;8.00;99.90;;;;;;5139824;27;20466;-81
2021/12/14 02:37:08;;;;;;;303.37;291.67;;;8.00;99.90;;;;;;5139450;27;20443;-82
2021/12/14 02:39:48;;;;;;;308.70;297.10;;;8.00;99.90;;;;;;5139708;27;20480;-82
2021/12/14 02:42:20;;;;;;;320.37;308.37;;;8.00;99.90;;;;;;5140086;27;20836;-82
2021/12/14 02:44:50;;;;;;;321.47;309.20;;;8.00;99.90;;;;;;5140028;27;20474;-82
2021/12/14 02:47:18;;;;;;;299.03;287.70;;;7.90;99.90;;;;;;5139536;27;20860;-81
2021/12/14 02:49:45;;;;;;;292.60;281.57;;;8.00;99.90;;;;;;5140175;27;20496;-82
2021/12/14 02:52:14;;;;;;;295.43;284.57;;;7.90;99.90;;;;;;5139521;27;20451;-83
2021/12/14 02:54:46;;;;;;;300.43;288.67;;;8.00;99.90;;;;;;5139789;27;20447;-82
2021/12/14 02:57:16;;;;;;;312.07;300.07;;;7.90;99.90;;;;;;5138732;27;20452;-81
2021/12/14 02:59:45;;;;;;;320.07;307.57;;;7.80;99.90;;;;;;5139304;27;21014;-82
2021/12/14 03:02:14;;;;;;;316.53;304.43;;;7.80;99.90;;;;;;5139701;27;20447;-82
2021/12/14 03:04:43;;;;;;;325.87;313.17;;;7.90;99.90;;;;;;5139575;27;20459;-82
2021/12/14 03:07:12;;;;;;;333.47;320.43;;;7.90;99.90;;;;;;5139782;27;20448;-82
2021/12/14 03:09:54;;;;;;;349.07;334.97;;;7.70;99.90;;;;;;5139282;27;20463;-83
2021/12/14 03:12:29;;;;;;;379.67;363.87;;;7.70;99.90;;;;;;5139324;27;20448;-81
2021/12/14 03:14:59;;;;;;;381.83;365.97;;;7.70;99.90;;;;;;5139572;27;20447;-81
2021/12/14 03:17:26;;;;;;;399.50;382.43;;;7.70;99.90;;;;;;5138780;27;20444;-82
2021/12/14 03:19:55;;;;;;;397.80;380.43;;;7.70;99.90;;;;;;5139487;27;20729;-82
2021/12/14 03:22:28;;;;;;;408.93;389.97;;;7.70;99.90;;;;;;5139299;27;20455;-82
2021/12/14 03:24:55;;;;;;;408.23;390.33;;;7.70;99.90;;;;;;5139043;27;20452;-82
2021/12/14 03:27:23;;;;;;;419.90;400.80;;;7.60;99.90;;;;;;5139440;27;20448;-83
2021/12/14 03:29:50;;;;;;;413.83;395.47;;;7.60;99.90;;;;;;5139287;27;20539;-81
2021/12/14 03:32:17;;;;;;;423.67;404.07;;;7.70;99.90;;;;;;5139378;27;20451;-82
2021/12/14 03:34:43;;;;;;;426.00;405.97;;;7.70;99.90;;;;;;5138826;27;20457;-82
2021/12/14 03:37:12;;;;;;;426.20;405.47;;;7.60;99.90;;;;;;5139051;28;20801;-82
2021/12/14 03:39:43;;;;;;;431.00;410.37;;;7.70;99.90;;;;;;5139325;27;20475;-82
2021/12/14 03:42:14;;;;;;;427.83;408.33;;;7.70;99.90;;;;;;5139402;28;20477;-82
2021/12/14 03:44:45;;;;;;;426.27;406.50;;;7.70;99.90;;;;;;5139211;27;20882;-81
2021/12/14 03:47:16;;;;;;;422.90;403.70;;;7.60;99.90;;;;;;5138442;28;20474;-82
2021/12/14 03:49:46;;;;;;;420.30;400.90;;;7.70;99.90;;;;;;5139910;28;20455;-83
2021/12/14 03:52:15;;;;;;;411.10;392.67;;;7.70;99.90;;;;;;5138960;27;20525;-83
2021/12/14 03:54:43;;;;;;;397.33;379.43;;;7.70;99.90;;;;;;5139086;28;20452;-82
2021/12/14 03:57:11;;;;;;;376.93;360.57;;;7.80;99.90;;;;;;5137648;28;20859;-81
2021/12/14 03:59:39;;;;;;;379.97;363.57;;;7.80;99.90;;;;;;5138171;27;20471;-82
2021/12/14 04:02:10;;;;;;;375.10;359.00;;;7.80;99.90;;;;;;5139123;28;20448;-82
2021/12/14 04:04:41;;;;;;;378.60;362.33;;;7.80;99.90;;;;;;5138758;28;20571;-82
2021/12/14 04:07:11;;;;;;;402.53;384.47;;;7.80;99.90;;;;;;5138018;28;20518;-82
2021/12/14 04:09:39;;;;;;;419.90;400.67;;;7.80;99.90;;;;;;5137845;28;20460;-82
2021/12/14 04:12:08;;;;;;;420.03;401.17;;;7.70;99.90;;;;;;5137769;28;20439;-82
2021/12/14 04:14:38;;;;;;;432.37;412.03;;;7.70;99.90;;;;;;5138635;28;20455;-81
2021/12/14 04:17:05;;;;;;;431.80;411.57;;;7.70;99.90;;;;;;5141208;27;20444;-82
2021/12/14 04:19:35;;;;;;;446.17;424.53;;;7.70;99.90;;;;;;5142723;27;20486;-82
2021/12/14 04:22:08;;;;;;;470.87;447.73;;;7.70;99.90;;;;;;5142011;27;20860;-82
2021/12/14 04:24:37;;;;;;;498.17;471.97;;;7.60;99.90;;;;;;5142996;27;20971;-82
2021/12/14 04:27:10;;;;;;;523.47;495.37;;;7.60;99.90;;;;;;5142825;27;20455;-82
2021/12/14 04:29:37;;;;;;;513.83;485.37;;;7.60;99.90;;;;;;5142207;27;20478;-81
2021/12/14 04:32:05;;;;;;;523.50;493.50;;;7.60;99.90;;;;;;5142609;27;20455;-81
2021/12/14 04:34:33;;;;;;;526.77;496.17;;;7.50;99.90;;;;;;5142785;27;20951;-82
2021/12/14 04:37:02;;;;;;;535.47;503.83;;;7.50;99.90;;;;;;5142607;27;20870;-82
2021/12/14 04:39:36;;;;;;;540.67;509.50;;;7.50;99.90;;;;;;5142666;27;20497;-82
2021/12/14 04:53:35;;;;;;;627.37;588.07;;;7.50;99.90;;;;;;5141988;27;20438;-82
2021/12/14 04:56:05;;;;;;;661.50;618.60;;;7.50;99.90;;;;;;5141296;27;20964;-83
2021/12/14 04:58:36;;;;;;;668.60;625.40;;;7.40;99.90;;;;;;5141546;27;20483;-82
2021/12/14 05:01:05;;;;;;;667.60;623.80;;;7.40;99.90;;;;;;5141744;27;20454;-82
2021/12/14 05:03:36;;;;;;;660.00;616.30;;;7.50;99.90;;;;;;5141584;27;20455;-81
2021/12/14 05:06:14;;;;;;;663.63;618.57;;;7.40;99.90;;;;;;5141342;27;20483;-82
2021/12/14 05:11:29;;;;;;;668.43;623.03;;;7.40;99.90;;;;;;5141273;27;20430;-82
2021/12/14 05:14:02;;;;;;;644.57;601.17;;;7.50;99.90;;;;;;5141435;27;20459;-82
2021/12/14 05:16:30;;;;;;;647.50;603.80;;;7.40;99.90;;;;;;5141037;27;20955;-82
2021/12/14 05:19:02;;;;;;;655.87;610.80;;;7.50;99.90;;;;;;5140972;27;20562;-81
2021/12/14 05:21:33;;;;;;;654.07;610.40;;;7.50;99.90;;;;;;5141395;27;20534;-82
2021/12/14 05:24:02;;;;;;;651.43;608.77;;;7.50;99.90;;;;;;5140633;27;20455;-82
2021/12/14 05:26:29;;;;;;;623.77;582.17;;;7.50;99.90;;;;;;5139907;27;20451;-81
2021/12/14 05:28:55;;;;;;;651.50;607.77;;;7.50;99.90;;;;;;5140678;27;20994;-81
2021/12/14 05:31:23;;;;;;;655.27;612.47;;;7.50;99.90;;;;;;5140935;27;20452;-82
2021/12/14 05:33:51;;;;;;;654.20;611.33;;;7.50;99.90;;;;;;5139981;27;20456;-82
2021/12/14 05:36:19;;;;;;;651.40;609.43;;;7.50;99.90;;;;;;5141158;27;20455;-82
2021/12/14 05:38:56;;;;;;;659.70;616.97;;;7.50;99.90;;;;;;5140146;27;20472;-82
2021/12/14 05:44:12;;;;;;;686.83;643.20;;;7.50;99.90;;;;;;5141115;27;20431;-82
2021/12/14 05:46:40;;;;;;;672.73;629.07;;;7.50;99.90;;;;;;5140697;27;20835;-82
2021/12/14 05:49:11;;;;;;;674.67;630.77;;;7.40;99.90;;;;;;5140715;27;20470;-81
2021/12/14 05:51:38;;;;;;;674.77;630.43;;;7.50;99.90;;;;;;5140734;27;20459;-82
2021/12/14 05:54:06;;;;;;;680.23;635.40;;;7.50;99.90;;;;;;5140087;27;20448;-82
2021/12/14 05:56:34;;;;;;;700.20;654.03;;;7.50;99.90;;;;;;5140272;27;20937;-81
2021/12/14 05:59:04;;;;;;;690.97;645.17;;;7.50;99.90;;;;;;5140158;27;20566;-82
2021/12/14 06:01:34;;;;;;;701.50;654.90;;;7.50;99.90;;;;;;5140999;27;20900;-81
2021/12/14 06:04:04;;;;;;;685.60;641.47;;;7.40;99.90;;;;;;5139656;27;20462;-81
2021/12/14 06:06:34;;;;;;;676.70;632.83;;;7.40;99.90;;;;;;5139548;27;20443;-82
2021/12/14 06:09:05;;;;;;;688.87;643.77;;;7.50;99.90;;;;;;5141020;27;21107;-81
2021/12/14 06:11:34;;;;;;;688.60;643.13;;;7.40;99.90;;;;;;5140127;27;20448;-82
2021/12/14 06:14:00;;;;;;;689.40;644.30;;;7.40;99.90;;;;;;5140790;27;20443;-83
2021/12/14 06:16:29;;;;;;;682.73;638.60;;;7.40;99.90;;;;;;5139646;27;20458;-82
2021/12/14 06:19:16;;;;;;;682.07;637.63;;;7.60;99.90;;;;;;5139880;27;20481;-82
2021/12/14 06:21:43;;;;;;;685.80;640.57;;;7.50;99.90;;;;;;5140134;27;20456;-82
2021/12/14 06:24:12;;;;;;;689.07;643.57;;;7.40;99.90;;;;;;5139355;27;20447;-81
2021/12/14 06:26:43;;;;;;;692.63;647.17;;;7.40;99.90;;;;;;5139369;27;20455;-81
2021/12/14 06:29:12;;;;;;;715.37;668.27;;;7.40;99.90;;;;;;5139774;27;20479;-81
2021/12/14 06:31:40;;;;;;;720.17;671.93;;;7.40;99.90;;;;;;5139050;27;20448;-81
2021/12/14 06:34:20;;;;;;;724.33;675.67;;;7.40;99.90;;;;;;5139297;27;20516;-81
2021/12/14 06:37:29;;;;;;;708.93;661.90;;;7.40;99.90;;;;;;5139169;27;20496;-81
2021/12/14 06:40:11;;;;;;;710.27;662.43;;;7.40;99.90;;;;;;5111338;27;20572;-82
2021/12/14 06:42:42;;;;;;;707.27;658.60;;;7.40;99.90;;;;;;5139736;27;20448;-82
2021/12/14 06:45:11;;;;;;;714.23;665.27;;;7.40;99.90;;;;;;5140690;27;20458;-81
2021/12/14 06:47:40;;;;;;;713.70;664.80;;;7.30;99.90;;;;;;5138084;27;20873;-82
2021/12/14 06:50:11;;;;;;;717.97;669.07;;;7.30;99.90;;;;;;5139017;27;20444;-82
2021/12/14 06:52:38;;;;;;;720.80;671.80;;;7.30;99.90;;;;;;5138943;27;20453;-82
2021/12/14 06:55:07;;;;;;;708.60;660.40;;;7.30;99.90;;;;;;5137943;27;20450;-81
2021/12/14 06:57:35;;;;;;;699.90;652.30;;;7.30;99.90;;;;;;5137475;27;20447;-82
2021/12/14 07:00:05;;;;;;;698.67;652.10;;;7.30;99.90;;;;;;5140358;27;20538;-82
2021/12/14 07:02:32;;;;;;;700.50;653.73;;;7.40;99.90;;;;;;5138814;27;20448;-82
2021/12/14 07:04:59;;;;;;;699.27;651.93;;;7.30;99.90;;;;;;5140120;27;20447;-83
2021/12/14 07:07:28;;;;;;;692.63;646.87;;;7.40;99.90;;;;;;5139336;27;20455;-83
2021/12/14 07:09:58;;;;;;;687.67;642.27;;;7.30;99.90;;;;;;5137264;27;20456;-82
2021/12/14 07:12:31;;;;;;;685.83;641.37;;;7.30;99.90;;;;;;5138682;27;20455;-82
2021/12/14 07:15:12;;;;;;;680.90;636.47;;;7.30;99.90;;;;;;5138204;27;20448;-82
2021/12/14 07:17:43;;;;;;;673.83;630.17;;;7.30;99.90;;;;;;5138283;27;20478;-82
2021/12/14 07:20:23;;;;;;;672.13;628.97;;;7.30;99.90;;;;;;5140121;27;20475;-81
2021/12/14 07:22:52;;;;;;;668.27;624.43;;;7.40;99.90;;;;;;5142034;27;20462;-84
2021/12/14 07:25:25;;;;;;;662.57;620.10;;;7.40;99.90;;;;;;5140466;27;20516;-84
2021/12/14 07:27:53;;;;;;;666.70;624.30;;;7.30;99.90;;;;;;5141884;27;20468;-81
2021/12/14 07:30:24;;;;;;;671.03;628.90;;;7.30;99.90;;;;;;5138293;27;20439;-83
2021/12/14 07:32:56;;;;;;;669.17;627.10;;;7.30;99.90;;;;;;5141139;27;20448;-82
2021/12/14 07:35:36;;;;;;;673.00;631.50;;;7.40;99.90;;;;;;5142143;27;20443;-82
2021/12/14 07:38:20;;;;;;;670.13;629.53;;;7.30;99.90;;;;;;5140324;28;20467;-83
2021/12/14 07:40:50;;;;;;;655.50;616.17;;;7.30;99.90;;;;;;5140273;27;20472;-82
2021/12/14 07:43:22;;;;;;;646.33;607.40;;;7.40;99.90;;;;;;5140206;28;20452;-82
2021/12/14 07:45:52;;;;;;;648.27;609.67;;;7.30;99.90;;;;;;5140268;28;20454;-82
2021/12/14 07:48:20;;;;;;;636.30;599.40;;;7.40;99.90;;;;;;5139615;27;20857;-82
2021/12/14 07:50:50;;;;;;;637.40;600.37;;;7.40;99.90;;;;;;5142789;27;20834;-82
2021/12/14 07:53:31;;;;;;;630.73;594.60;;;7.40;99.90;;;;;;5144796;27;20463;-82
2021/12/14 07:55:57;;;;;;;632.57;596.07;;;7.40;99.90;;;;;;5144904;27;20432;-82
2021/12/14 07:58:31;;;;;;;630.07;593.50;;;7.40;99.90;;;;;;5144050;27;20464;-82
2021/12/14 08:01:00;;;;;;;636.83;600.07;;;7.40;99.90;;;;;;5144802;27;20471;-82
2021/12/14 08:03:33;;;;;;;631.47;594.57;;;7.40;99.90;;;;;;5130259;27;20452;-82
2021/12/14 08:06:01;;;;;;;628.17;591.13;;;7.40;99.90;;;;;;5123405;28;20539;-83
2021/12/14 08:08:41;;;;;;;624.07;586.80;;;7.40;99.90;;;;;;5123072;28;20472;-82
2021/12/14 08:11:29;;;;;;;608.20;573.37;;;7.40;99.90;;;;;;5123854;28;20452;-82
2021/12/14 08:13:58;;;;;;;591.87;558.43;;;7.40;99.90;;;;;;5124077;28;20569;-82
2021/12/14 08:16:37;;;;;;;576.47;543.90;;;7.40;99.90;;;;;;5123295;28;20448;-82
2021/12/14 08:19:04;;;;;;;550.33;519.73;;;7.50;99.90;;;;;;5122929;28;20472;-82
2021/12/14 08:21:31;;;;;;;526.50;497.87;;;7.50;99.90;;;;;;5123425;28;20521;-82
2021/12/14 08:24:00;;;;;;;530.87;502.60;;;7.50;99.90;;;;;;5122946;28;20460;-83
2021/12/14 08:26:35;;;;;;;522.33;495.20;;;7.50;99.90;;;;;;5123705;28;20448;-83
2021/12/14 08:29:05;;;;;;;497.17;471.20;;;7.50;99.90;;;;;;5123089;28;20472;-82
2021/12/14 08:31:36;;;;;;;503.40;476.27;;;7.60;99.90;;;;;;5123862;28;20452;-83
2021/12/14 08:34:05;;;;;;;502.70;476.07;;;7.60;99.90;;;;;;5123064;28;20456;-82
2021/12/14 08:36:39;;;;;;;490.50;464.80;;;7.60;99.90;;;;;;5122446;28;20449;-82
2021/12/14 08:39:08;;;;;;;510.50;483.70;;;7.70;99.90;;;;;;5123564;28;20507;-82
2021/12/14 08:41:36;;;;;;;468.77;445.90;;;7.60;99.90;;;;;;5123241;28;20455;-83
2021/12/14 08:44:10;;;;;;;450.80;428.93;;;7.60;99.90;;;;;;5123595;28;20444;-82
2021/12/14 08:46:40;;;;;;;439.43;418.30;;;7.70;99.90;;;;;;5122812;28;20441;-83
2021/12/14 08:49:08;;;;;;;420.80;401.02;;;7.70;99.90;;;;;;5120615;28;20474;-82
2021/12/14 08:51:40;;;;;;;381.97;364.70;;;7.70;99.90;;;;;;5121125;28;20617;-82
2021/12/14 08:54:10;;;;;;;359.07;343.60;;;7.80;99.90;;;;;;5122131;28;20505;-82
2021/12/14 08:56:42;;;;;;;355.63;340.50;;;7.80;99.90;;;;;;5121669;28;20793;-82
2021/12/14 08:59:09;;;;;;;340.93;326.30;;;7.80;99.90;;;;;;5121280;28;20476;-83
2021/12/14 09:01:40;;;;;;;338.40;323.67;;;7.80;99.90;;;;;;5121222;28;20456;-82
2021/12/14 09:04:10;;;;;;;325.63;312.03;;;7.90;99.90;;;;;;5123543;28;20455;-83
2021/12/14 09:06:40;;;;;;;329.10;315.10;;;7.90;99.90;;;;;;5123020;28;20456;-83
2021/12/14 09:09:10;;;;;;;328.27;314.37;;;7.90;99.90;;;;;;5123328;28;20475;-82
2021/12/14 09:11:40;;;;;;;320.57;306.97;;;8.00;99.90;;;;;;5123290;28;20573;-82
2021/12/14 09:14:13;;;;;;;308.80;295.70;;;7.90;99.90;;;;;;5124206;28;20456;-83
2021/12/14 09:16:48;;;;;;;325.33;311.87;;;8.00;99.90;;;;;;5121627;28;20829;-82
2021/12/14 09:19:22;;;;;;;350.37;335.30;;;8.00;99.90;;;;;;5122185;28;20476;-83
2021/12/14 09:21:55;;;;;;;312.93;300.07;;;8.10;99.90;;;;;;5122134;28;20466;-82
2021/12/14 09:24:24;;;;;;;320.40;306.70;;;8.00;99.90;;;;;;5122483;28;20467;-82
2021/12/14 09:26:54;;;;;;;296.67;284.43;;;8.10;99.90;;;;;;5121985;28;20448;-83
2021/12/14 09:29:23;;;;;;;284.90;273.00;;;8.10;99.90;;;;;;5122182;28;20464;-83
2021/12/14 09:31:54;;;;;;;274.53;263.63;;;8.10;99.90;;;;;;5121695;28;20449;-82
2021/12/14 09:34:23;;;;;;;269.53;258.20;;;8.10;99.90;;;;;;5123009;28;20464;-82
2021/12/14 09:36:51;;;;;;;276.40;265.30;;;8.10;99.90;;;;;;5121641;28;20480;-82
2021/12/14 09:39:20;;;;;;;281.77;270.33;;;8.10;99.90;;;;;;5121036;28;20588;-82
2021/12/14 09:41:53;;;;;;;280.17;269.03;;;8.10;99.90;;;;;;5121536;28;20437;-82
2021/12/14 09:44:22;;;;;;;268.03;257.17;;;8.10;99.90;;;;;;5121591;28;20452;-82
2021/12/14 09:46:51;;;;;;;250.10;239.87;;;8.10;99.90;;;;;;5121568;28;20492;-83
2021/12/14 09:49:19;;;;;;;253.57;243.37;;;8.20;99.90;;;;;;5121885;28;20476;-82
2021/12/14 09:51:51;;;;;;;266.53;255.70;;;8.20;99.90;;;;;;5120579;28;20441;-82
2021/12/14 09:54:22;;;;;;;259.93;249.50;;;8.20;99.90;;;;;;5120679;28;20453;-83
2021/12/14 09:56:52;;;;;;;257.17;247.00;;;8.20;99.90;;;;;;5120009;28;20441;-82
2021/12/14 09:59:19;;;;;;;244.40;234.97;;;8.20;99.90;;;;;;5121347;28;20469;-82
2021/12/14 10:01:52;;;;;;;234.97;225.77;;;8.30;99.90;;;;;;5121485;28;20479;-83
2021/12/14 10:04:23;;;;;;;236.20;227.37;;;8.30;99.90;;;;;;5122894;28;21086;-83
2021/12/14 10:06:51;;;;;;;209.13;200.83;;;8.40;99.90;;;;;;5121800;28;20457;-82
2021/12/14 10:09:20;;;;;;;208.33;200.23;;;8.40;99.90;;;;;;5121577;28;20476;-83
2021/12/14 10:12:14;;;;;;;210.43;202.33;;;8.50;99.90;;;;;;5120477;28;20441;-82
2021/12/14 10:14:40;;;;;;;217.60;209.07;;;8.50;99.90;;;;;;5119672;28;20543;-83
2021/12/14 10:17:10;;;;;;;198.97;190.97;;;8.50;99.90;;;;;;5120411;28;20452;-83
2021/12/14 10:19:38;;;;;;;182.17;174.47;;;8.50;99.90;;;;;;5121662;28;20472;-82
2021/12/14 10:22:09;;;;;;;170.40;163.30;;;8.60;99.90;;;;;;5121552;28;20445;-83
2021/12/14 10:24:38;;;;;;;148.20;142.03;;;8.60;99.90;;;;;;5121261;28;20456;-84
2021/12/14 10:27:11;;;;;;;140.43;133.73;;;8.60;99.90;;;;;;5120778;28;20453;-83
2021/12/14 10:29:38;;;;;;;161.07;154.27;;;8.60;99.90;;;;;;5121932;28;21002;-82
2021/12/14 10:32:09;;;;;;;143.90;137.50;;;8.70;99.90;;;;;;5121567;28;20846;-83
2021/12/14 10:34:40;;;;;;;139.53;133.23;;;8.70;99.90;;;;;;5121042;28;20467;-82
2021/12/14 10:37:15;;;;;;;150.20;143.77;;;8.70;99.90;;;;;;5121272;28;20453;-83
2021/12/14 10:42:40;;;;;;;138.23;132.37;;;8.60;99.90;;;;;;5122348;28;20437;-83
2021/12/14 10:43:04;;;;;;;158.57;151.87;;;8.60;99.90;;;;;;5122018;28;20541;-83
2021/12/14 10:45:31;;;;;;;172.30;165.00;;;8.70;99.90;;;;;;5122494;28;20565;-82
2021/12/14 10:48:01;;;;;;;159.53;152.83;;;8.70;99.90;;;;;;5122174;28;20984;-84
2021/12/14 10:50:31;;;;;;;147.07;140.67;;;8.70;99.90;;;;;;5122060;28;20452;-82
2021/12/14 10:52:58;;;;;;;149.90;143.07;;;8.60;99.90;;;;;;5121953;28;20453;-84
2021/12/14 10:55:28;;;;;;;131.50;125.80;;;8.70;99.90;;;;;;5121152;28;20456;-82
2021/12/14 10:57:55;;;;;;;139.83;133.83;;;8.70;99.90;;;;;;5121833;28;20539;-82
2021/12/14 11:00:30;;;;;;;130.90;125.03;;;8.80;99.90;;;;;;5122197;28;20473;-83
2021/12/14 11:03:04;;;;;;;139.10;132.80;;;8.80;99.90;;;;;;5123417;28;20476;-82
2021/12/14 11:05:33;;;;;;;125.70;119.83;;;8.80;99.90;;;;;;5120475;28;20460;-83
2021/12/14 11:08:01;;;;;;;160.38;153.38;;;8.90;99.90;;;;;;5120261;28;20814;-82
2021/12/14 11:10:31;;;;;;;115.50;109.90;;;9.00;99.90;;;;;;5121735;28;20190;-83
2021/12/14 11:13:02;;;;;;;112.83;107.20;;;9.10;99.90;;;;;;5121664;28;20452;-83
2021/12/14 11:15:35;;;;;;;101.20;96.20;;;9.10;99.90;;;;;;5120392;28;20468;-83
2021/12/14 11:18:11;;;;;;;74.60;70.50;;;9.20;99.90;;;;;;5120948;28;20494;-84
2021/12/14 11:20:43;;;;;;;65.80;61.70;;;9.20;99.90;;;;;;5124043;28;20557;-84
2021/12/14 11:23:14;;;;;;;67.97;63.50;;;9.20;99.90;;;;;;5125105;28;20443;-82
2021/12/14 11:25:51;;;;;;;66.50;62.57;;;9.40;99.90;;;;;;5128675;28;20452;-83
2021/12/14 11:28:22;;;;;;;67.10;62.70;;;9.40;99.90;;;;;;5127624;28;20471;-82
2021/12/14 11:31:00;;;;;;;50.60;46.70;;;9.40;99.90;;;;;;5128296;28;20441;-83
2021/12/14 11:33:32;;;;;;;41.97;38.77;;;9.40;99.90;;;;;;5127893;28;20456;-82
2021/12/14 11:36:07;;;;;;;48.37;44.57;;;9.60;99.90;;;;;;5125012;28;20470;-82
2021/12/14 11:38:39;;;;;;;43.00;39.40;;;9.50;99.90;;;;;;5127142;28;20464;-83
2021/12/14 11:41:22;;;;;;;39.17;35.73;;;9.50;99.90;;;;;;5127539;28;20474;-83
2021/12/14 11:43:51;;;;;;;40.20;36.47;;;9.40;99.90;;;;;;5126367;28;20464;-84
2021/12/14 11:46:19;;;;;;;46.63;43.03;;;9.40;99.90;;;;;;5127783;28;20445;-83
2021/12/14 11:48:47;;;;;;;44.03;40.47;;;9.50;99.90;;;;;;5128244;28;20496;-83
2021/12/14 11:51:14;;;;;;;37.57;34.27;;;9.50;99.90;;;;;;5126566;28;20819;-83
2021/12/14 11:53:49;;;;;;;45.97;42.07;;;9.50;99.90;;;;;;5127042;28;20780;-83
2021/12/14 11:56:21;;;;;;;40.67;37.10;;;9.50;99.90;;;;;;5127010;28;20463;-83
2021/12/14 11:58:51;;;;;;;43.93;40.47;;;9.50;99.90;;;;;;5126215;28;20495;-82
2021/12/14 12:01:21;;;;;;;41.83;38.37;;;9.60;99.90;;;;;;5125553;28;20477;-82
2021/12/14 12:03:56;;;;;;;37.83;34.40;;;9.60;99.90;;;;;;5126761;28;20449;-83
2021/12/14 12:06:44;;;;;;;36.07;32.97;;;9.60;99.90;;;;;;5125258;28;20468;-82
2021/12/14 12:09:29;;;;;;;45.30;41.60;;;9.50;99.90;;;;;;5125862;28;20461;-83
2021/12/14 12:12:00;;;;;;;46.00;42.03;;;9.60;99.90;;;;;;5127428;28;20521;-83
2021/12/14 12:14:29;;;;;;;46.93;42.40;;;9.50;99.90;;;;;;5126293;28;20455;-82
2021/12/14 12:17:11;;;;;;;48.73;45.07;;;9.40;99.90;;;;;;5126604;28;20449;-82
2021/12/14 12:19:40;;;;;;;54.60;50.60;;;9.50;99.90;;;;;;5120862;28;20472;-83
2021/12/14 12:22:15;;;;;;;45.90;42.50;;;9.60;99.90;;;;;;5121113;28;20491;-82
2021/12/14 12:24:45;;;;;;;46.30;42.77;;;9.60;99.90;;;;;;5124593;28;20448;-83
2021/12/14 12:27:41;;;;;;;47.70;44.13;;;9.70;99.90;;;;;;5125785;28;20449;-82
2021/12/14 12:30:28;;;;;;;44.30;40.70;;;9.80;99.90;;;;;;5089603;28;20453;-83
2021/12/14 12:32:56;;;;;;;37.40;33.90;;;9.80;99.90;;;;;;5124383;28;20445;-84
2021/12/14 12:35:32;;;;;;;34.00;31.07;;;9.90;99.90;;;;;;5125440;28;20845;-83
2021/12/14 12:38:00;;;;;;;35.80;32.80;;;9.80;99.90;;;;;;5127594;28;20470;-85
2021/12/14 12:40:46;;;;;;;31.90;28.90;;;9.90;99.90;;;;;;5129187;28;20469;-83
2021/12/14 12:43:16;;;;;;;31.07;27.97;;;10.10;99.80;;;;;;5128196;28;20465;-84
2021/12/14 12:45:58;;;;;;;27.23;24.03;;;10.00;99.00;;;;;;5127820;28;20968;-84
2021/12/14 12:49:00;;;;;;;33.33;23.17;;;10.00;98.40;;;;;;5127924;28;20471;-84
2021/12/14 12:52:05;;;;;;;38.10;32.40;;;10.10;98.50;;;;;;5127662;28;20452;-84
2021/12/14 12:54:56;;;;;;;29.50;26.33;;;10.30;99.00;;;;;;5127756;28;20539;-84
2021/12/14 12:57:43;;;;;;;27.03;21.40;;;10.40;98.50;;;;;;5127248;28;20455;-84
2021/12/14 13:00:25;;;;;;;23.00;19.57;;;10.50;96.50;;;;;;5128363;28;20536;-84
2021/12/14 13:02:56;;;;;;;23.03;18.67;;;10.40;96.40;;;;;;5127402;28;20449;-84